sensor_id;sensor_type;location;lat;lon;timestamp;pressure;altitude;pressure_sealevel;temperature;humidity
6134;BME280;3098;42.678;23.364;2022-10-16T00:00:11;95549.69;;;8.59;100.00
6134;BME280;3098;42.678;23.364;2022-10-16T00:02:46;95550.97;;;8.61;100.00
6134;BME280;3098;42.678;23.364;2022-10-16T00:05:40;95554.19;;;8.58;100.00
6134;BME280;3098;42.678;23.364;2022-10-16T00:08:12;95558.53;;;8.44;100.00
6134;BME280;3098;42.678;23.364;2022-10-16T00:10:51;95543.84;;;8.33;100.00
6134;BME280;3098;42.678;23.364;2022-10-16T00:13:18;95549.16;;;8.23;100.00
6134;BME280;3098;42.678;23.364;2022-10-16T00:15:47;95557.31;;;8.32;100.00
6134;BME280;3098;42.678;23.364;2022-10-16T00:18:14;95555.19;;;8.34;100.00
6134;BME280;3098;42.678;23.364;2022-10-16T00:20:41;95525.75;;;8.12;100.00
6134;BME280;3098;42.678;23.364;2022-10-16T00:23:08;95568.41;;;8.34;100.00
6134;BME280;3098;42.678;23.364;2022-10-16T00:25:36;95567.56;;;8.38;100.00
6134;BME280;3098;42.678;23.364;2022-10-16T00:28:03;95563.31;;;8.42;100.00
6134;BME280;3098;42.678;23.364;2022-10-16T00:30:30;95568.06;;;8.45;100.00
6134;BME280;3098;42.678;23.364;2022-10-16T00:32:59;95558.06;;;8.37;100.00
6134;BME280;3098;42.678;23.364;2022-10-16T00:35:26;95577.34;;;8.43;100.00
6134;BME280;3098;42.678;23.364;2022-10-16T00:37:54;95582.69;;;8.33;100.00
6134;BME280;3098;42.678;23.364;2022-10-16T00:40:21;95582.97;;;8.26;100.00
6134;BME280;3098;42.678;23.364;2022-10-16T00:42:49;95582.00;;;8.17;100.00
6134;BME280;3098;42.678;23.364;2022-10-16T00:45:16;95577.53;;;8.13;100.00
6134;BME280;3098;42.678;23.364;2022-10-16T00:47:45;95569.34;;;8.09;100.00
6134;BME280;3098;42.678;23.364;2022-10-16T00:50:18;95570.09;;;8.15;100.00
6134;BME280;3098;42.678;23.364;2022-10-16T00:52:50;95568.25;;;8.15;100.00
6134;BME280;3098;42.678;23.364;2022-10-16T00:55:18;95571.13;;;8.19;100.00
6134;BME280;3098;42.678;23.364;2022-10-16T00:57:46;95542.22;;;7.98;100.00
6134;BME280;3098;42.678;23.364;2022-10-16T01:00:19;95575.91;;;8.17;100.00
6134;BME280;3098;42.678;23.364;2022-10-16T01:02:52;95553.28;;;8.00;100.00
6134;BME280;3098;42.678;23.364;2022-10-16T01:05:21;95587.06;;;8.08;100.00
6134;BME280;3098;42.678;23.364;2022-10-16T01:07:56;95584.44;;;8.03;100.00
6134;BME280;3098;42.678;23.364;2022-10-16T01:10:31;95582.94;;;7.97;100.00
6134;BME280;3098;42.678;23.364;2022-10-16T01:13:05;95576.09;;;7.86;100.00
6134;BME280;3098;42.678;23.364;2022-10-16T01:15:35;95590.59;;;7.94;100.00
6134;BME280;3098;42.678;23.364;2022-10-16T01:18:09;95561.66;;;7.74;100.00
6134;BME280;3098;42.678;23.364;2022-10-16T01:20:43;95579.34;;;7.73;100.00
6134;BME280;3098;42.678;23.364;2022-10-16T01:23:21;95532.31;;;7.36;100.00
6134;BME280;3098;42.678;23.364;2022-10-16T01:26:05;95569.69;;;7.53;100.00
6134;BME280;3098;42.678;23.364;2022-10-16T01:28:41;95511.81;;;7.13;100.00
6134;BME280;3098;42.678;23.364;2022-10-16T01:31:15;95570.56;;;7.39;100.00
6134;BME280;3098;42.678;23.364;2022-10-16T01:33:45;95570.59;;;7.34;100.00
6134;BME280;3098;42.678;23.364;2022-10-16T01:36:15;95565.59;;;7.27;100.00
6134;BME280;3098;42.678;23.364;2022-10-16T01:38:47;95570.88;;;7.27;100.00
6134;BME280;3098;42.678;23.364;2022-10-16T01:41:17;95564.53;;;7.28;100.00
6134;BME280;3098;42.678;23.364;2022-10-16T01:43:52;95572.38;;;7.48;100.00
6134;BME280;3098;42.678;23.364;2022-10-16T01:46:21;95574.25;;;7.43;100.00
6134;BME280;3098;42.678;23.364;2022-10-16T01:48:51;95580.31;;;7.43;100.00
6134;BME280;3098;42.678;23.364;2022-10-16T01:51:19;95581.63;;;7.41;100.00
6134;BME280;3098;42.678;23.364;2022-10-16T01:53:50;95568.19;;;7.37;100.00
6134;BME280;3098;42.678;23.364;2022-10-16T01:56:19;95584.00;;;7.42;100.00
6134;BME280;3098;42.678;23.364;2022-10-16T01:58:52;95552.25;;;7.04;100.00
6134;BME280;3098;42.678;23.364;2022-10-16T02:01:23;95583.72;;;7.49;100.00
6134;BME280;3098;42.678;23.364;2022-10-16T02:03:54;95563.75;;;7.28;100.00
6134;BME280;3098;42.678;23.364;2022-10-16T02:06:23;95594.53;;;7.47;100.00
6134;BME280;3098;42.678;23.364;2022-10-16T02:08:51;95570.38;;;7.15;100.00
6134;BME280;3098;42.678;23.364;2022-10-16T02:11:18;95604.06;;;7.38;100.00
6134;BME280;3098;42.678;23.364;2022-10-16T02:13:48;95589.31;;;7.37;100.00
6134;BME280;3098;42.678;23.364;2022-10-16T02:16:18;95586.16;;;7.30;100.00
6134;BME280;3098;42.678;23.364;2022-10-16T02:18:46;95600.63;;;7.43;100.00
6134;BME280;3098;42.678;23.364;2022-10-16T02:21:17;95597.75;;;7.39;100.00
6134;BME280;3098;42.678;23.364;2022-10-16T02:23:49;95596.44;;;7.37;100.00
6134;BME280;3098;42.678;23.364;2022-10-16T02:26:25;95608.25;;;7.49;100.00
6134;BME280;3098;42.678;23.364;2022-10-16T02:28:59;95599.31;;;7.35;100.00
6134;BME280;3098;42.678;23.364;2022-10-16T02:31:34;95604.06;;;7.38;100.00
6134;BME280;3098;42.678;23.364;2022-10-16T02:34:03;95615.16;;;7.40;100.00
6134;BME280;3098;42.678;23.364;2022-10-16T02:36:33;95603.84;;;7.25;100.00
6134;BME280;3098;42.678;23.364;2022-10-16T02:39:02;95612.28;;;7.32;100.00
6134;BME280;3098;42.678;23.364;2022-10-16T02:41:31;95616.78;;;7.21;100.00
6134;BME280;3098;42.678;23.364;2022-10-16T02:43:58;95593.91;;;7.02;100.00
6134;BME280;3098;42.678;23.364;2022-10-16T02:46:25;95567.34;;;6.73;100.00
6134;BME280;3098;42.678;23.364;2022-10-16T02:48:54;95614.78;;;6.98;100.00
6134;BME280;3098;42.678;23.364;2022-10-16T02:51:22;95608.94;;;6.96;100.00
6134;BME280;3098;42.678;23.364;2022-10-16T02:53:49;95614.50;;;6.94;100.00
6134;BME280;3098;42.678;23.364;2022-10-16T02:56:16;95627.69;;;6.94;100.00
6134;BME280;3098;42.678;23.364;2022-10-16T02:58:43;95596.34;;;6.68;100.00
6134;BME280;3098;42.678;23.364;2022-10-16T03:01:10;95627.97;;;6.83;100.00
6134;BME280;3098;42.678;23.364;2022-10-16T03:03:38;95627.72;;;6.69;100.00
6134;BME280;3098;42.678;23.364;2022-10-16T03:06:06;95609.00;;;6.56;100.00
6134;BME280;3098;42.678;23.364;2022-10-16T03:08:34;95614.81;;;6.58;100.00
6134;BME280;3098;42.678;23.364;2022-10-16T03:11:00;95628.50;;;6.60;100.00
6134;BME280;3098;42.678;23.364;2022-10-16T03:13:28;95618.00;;;6.50;100.00
6134;BME280;3098;42.678;23.364;2022-10-16T03:15:55;95612.97;;;6.63;100.00
6134;BME280;3098;42.678;23.364;2022-10-16T03:18:22;95634.28;;;6.82;100.00
6134;BME280;3098;42.678;23.364;2022-10-16T03:20:49;95632.19;;;6.74;100.00
6134;BME280;3098;42.678;23.364;2022-10-16T03:23:17;95630.63;;;6.63;100.00
6134;BME280;3098;42.678;23.364;2022-10-16T03:25:44;95643.53;;;6.69;100.00
6134;BME280;3098;42.678;23.364;2022-10-16T03:28:11;95640.63;;;6.66;100.00
6134;BME280;3098;42.678;23.364;2022-10-16T03:30:38;95641.97;;;6.63;100.00
6134;BME280;3098;42.678;23.364;2022-10-16T03:33:06;95648.81;;;6.59;100.00
6134;BME280;3098;42.678;23.364;2022-10-16T03:35:33;95634.31;;;6.57;100.00
6134;BME280;3098;42.678;23.364;2022-10-16T03:38:01;95636.44;;;6.50;100.00
6134;BME280;3098;42.678;23.364;2022-10-16T03:40:30;95641.94;;;6.53;100.00
6134;BME280;3098;42.678;23.364;2022-10-16T03:42:57;95631.97;;;6.55;100.00
6134;BME280;3098;42.678;23.364;2022-10-16T03:45:24;95620.09;;;6.38;100.00
6134;BME280;3098;42.678;23.364;2022-10-16T03:47:52;95628.00;;;6.43;100.00
6134;BME280;3098;42.678;23.364;2022-10-16T03:50:19;95638.28;;;6.54;100.00
6134;BME280;3098;42.678;23.364;2022-10-16T03:52:47;95648.28;;;6.52;100.00
6134;BME280;3098;42.678;23.364;2022-10-16T03:55:14;95620.88;;;6.43;100.00
6134;BME280;3098;42.678;23.364;2022-10-16T03:57:42;95634.84;;;6.49;100.00
6134;BME280;3098;42.678;23.364;2022-10-16T04:00:11;95618.78;;;6.30;100.00
6134;BME280;3098;42.678;23.364;2022-10-16T04:02:38;95626.69;;;6.40;100.00
6134;BME280;3098;42.678;23.364;2022-10-16T04:05:06;95640.09;;;6.33;100.00
6134;BME280;3098;42.678;23.364;2022-10-16T04:07:34;95614.53;;;6.14;100.00
6134;BME280;3098;42.678;23.364;2022-10-16T04:10:02;95635.09;;;6.22;100.00
6134;BME280;3098;42.678;23.364;2022-10-16T04:12:30;95634.56;;;6.20;100.00
6134;BME280;3098;42.678;23.364;2022-10-16T04:14:58;95640.34;;;6.22;100.00
6134;BME280;3098;42.678;23.364;2022-10-16T04:17:26;95630.09;;;6.20;100.00
6134;BME280;3098;42.678;23.364;2022-10-16T04:19:53;95640.63;;;6.20;100.00
6134;BME280;3098;42.678;23.364;2022-10-16T04:22:21;95637.47;;;6.23;100.00
6134;BME280;3098;42.678;23.364;2022-10-16T04:24:48;95644.31;;;6.29;100.00
6134;BME280;3098;42.678;23.364;2022-10-16T04:27:15;95636.16;;;6.26;100.00
6134;BME280;3098;42.678;23.364;2022-10-16T04:29:42;95643.53;;;6.34;100.00
6134;BME280;3098;42.678;23.364;2022-10-16T04:32:11;95641.94;;;6.33;100.00
6134;BME280;3098;42.678;23.364;2022-10-16T04:34:39;95642.75;;;6.33;100.00
6134;BME280;3098;42.678;23.364;2022-10-16T04:37:06;95631.94;;;6.20;100.00
6134;BME280;3098;42.678;23.364;2022-10-16T04:39:34;95637.75;;;6.27;100.00
6134;BME280;3098;42.678;23.364;2022-10-16T04:42:01;95654.88;;;6.40;100.00
6134;BME280;3098;42.678;23.364;2022-10-16T04:44:28;95626.94;;;6.23;100.00
6134;BME280;3098;42.678;23.364;2022-10-16T04:46:56;95661.97;;;6.34;100.00
6134;BME280;3098;42.678;23.364;2022-10-16T04:49:25;95661.47;;;6.32;100.00
6134;BME280;3098;42.678;23.364;2022-10-16T04:51:53;95655.38;;;6.21;100.00
6134;BME280;3098;42.678;23.364;2022-10-16T04:54:20;95667.53;;;6.32;100.00
6134;BME280;3098;42.678;23.364;2022-10-16T04:56:48;95652.75;;;6.26;100.00
6134;BME280;3098;42.678;23.364;2022-10-16T04:59:17;95662.50;;;6.31;100.00
6134;BME280;3098;42.678;23.364;2022-10-16T05:01:46;95642.75;;;6.23;100.00
6134;BME280;3098;42.678;23.364;2022-10-16T05:04:13;95683.34;;;6.68;100.00
6134;BME280;3098;42.678;23.364;2022-10-16T05:06:43;95680.69;;;6.68;100.00
6134;BME280;3098;42.678;23.364;2022-10-16T05:09:10;95669.13;;;6.69;100.00
6134;BME280;3098;42.678;23.364;2022-10-16T05:11:39;95684.84;;;7.34;100.00
6134;BME280;3098;42.678;23.364;2022-10-16T05:14:06;95690.34;;;8.17;100.00
6134;BME280;3098;42.678;23.364;2022-10-16T05:16:33;95691.69;;;8.92;100.00
6134;BME280;3098;42.678;23.364;2022-10-16T05:19:01;95686.97;;;10.31;100.00
6134;BME280;3098;42.678;23.364;2022-10-16T05:21:29;95679.84;;;10.08;100.00
6134;BME280;3098;42.678;23.364;2022-10-16T05:23:57;95708.03;;;10.79;100.00
6134;BME280;3098;42.678;23.364;2022-10-16T05:26:24;95714.53;;;12.33;100.00
6134;BME280;3098;42.678;23.364;2022-10-16T05:28:51;95708.03;;;13.41;96.37
6134;BME280;3098;42.678;23.364;2022-10-16T05:31:18;95697.50;;;14.06;91.12
6134;BME280;3098;42.678;23.364;2022-10-16T05:33:45;95704.06;;;14.82;86.45
6134;BME280;3098;42.678;23.364;2022-10-16T05:36:12;95706.75;;;16.09;78.87
6134;BME280;3098;42.678;23.364;2022-10-16T05:38:40;95708.50;;;16.85;72.46
6134;BME280;3098;42.678;23.364;2022-10-16T05:41:09;95708.41;;;17.79;68.46
6134;BME280;3098;42.678;23.364;2022-10-16T05:43:36;95716.28;;;18.33;62.78
6134;BME280;3098;42.678;23.364;2022-10-16T05:46:05;95713.25;;;18.10;62.54
6134;BME280;3098;42.678;23.364;2022-10-16T05:48:33;95723.34;;;17.68;62.88
6134;BME280;3098;42.678;23.364;2022-10-16T05:51:01;95725.19;;;17.89;62.02
6134;BME280;3098;42.678;23.364;2022-10-16T05:53:30;95725.41;;;17.84;62.07
6134;BME280;3098;42.678;23.364;2022-10-16T05:55:58;95731.47;;;18.29;60.25
6134;BME280;3098;42.678;23.364;2022-10-16T05:58:31;95728.56;;;18.70;58.63
6134;BME280;3098;42.678;23.364;2022-10-16T06:01:00;95735.25;;;18.88;57.05
6134;BME280;3098;42.678;23.364;2022-10-16T06:03:28;95732.53;;;17.67;59.53
6134;BME280;3098;42.678;23.364;2022-10-16T06:05:56;95745.38;;;17.62;61.47
6134;BME280;3098;42.678;23.364;2022-10-16T06:08:23;95703.75;;;18.49;59.05
6134;BME280;3098;42.678;23.364;2022-10-16T06:11:00;95743.28;;;19.99;51.54
6134;BME280;3098;42.678;23.364;2022-10-16T06:13:29;95702.25;;;20.53;49.53
6134;BME280;3098;42.678;23.364;2022-10-16T06:15:58;95746.31;;;21.49;47.19
6134;BME280;3098;42.678;23.364;2022-10-16T06:18:25;95700.91;;;20.28;48.75
6134;BME280;3098;42.678;23.364;2022-10-16T06:20:53;95741.88;;;18.79;53.14
6134;BME280;3098;42.678;23.364;2022-10-16T06:23:20;95753.69;;;19.42;52.35
6134;BME280;3098;42.678;23.364;2022-10-16T06:25:47;95752.69;;;20.05;50.99
6134;BME280;3098;42.678;23.364;2022-10-16T06:28:14;95747.03;;;19.24;51.49
6134;BME280;3098;42.678;23.364;2022-10-16T06:30:43;95754.09;;;20.31;48.78
6134;BME280;3098;42.678;23.364;2022-10-16T06:33:11;95762.63;;;20.83;47.01
6134;BME280;3098;42.678;23.364;2022-10-16T06:35:38;95754.94;;;17.84;55.43
6134;BME280;3098;42.678;23.364;2022-10-16T06:38:05;95765.63;;;19.17;52.84
6134;BME280;3098;42.678;23.364;2022-10-16T06:40:32;95762.69;;;21.02;48.24
6134;BME280;3098;42.678;23.364;2022-10-16T06:42:59;95753.66;;;21.71;43.95
6134;BME280;3098;42.678;23.364;2022-10-16T06:45:27;95760.16;;;22.31;43.15
6134;BME280;3098;42.678;23.364;2022-10-16T06:47:56;95772.53;;;21.30;45.27
6134;BME280;3098;42.678;23.364;2022-10-16T06:50:23;95778.06;;;21.37;44.97
6134;BME280;3098;42.678;23.364;2022-10-16T06:52:51;95722.41;;;20.94;46.38
6134;BME280;3098;42.678;23.364;2022-10-16T06:55:18;95773.22;;;21.46;44.70
6134;BME280;3098;42.678;23.364;2022-10-16T06:57:46;95779.97;;;21.55;44.47
6134;BME280;3098;42.678;23.364;2022-10-16T07:00:15;95772.31;;;22.18;42.83
6134;BME280;3098;42.678;23.364;2022-10-16T07:02:44;95793.59;;;21.43;45.21
6134;BME280;3098;42.678;23.364;2022-10-16T07:05:14;95753.78;;;21.98;42.98
6134;BME280;3098;42.678;23.364;2022-10-16T07:07:42;95707.03;;;21.33;42.89
6134;BME280;3098;42.678;23.364;2022-10-16T07:10:09;95770.41;;;22.45;40.33
6134;BME280;3098;42.678;23.364;2022-10-16T07:12:37;95774.28;;;22.67;41.11
6134;BME280;3098;42.678;23.364;2022-10-16T07:15:06;95801.78;;;21.47;42.76
6134;BME280;3098;42.678;23.364;2022-10-16T07:17:35;95800.31;;;18.46;50.54
6134;BME280;3098;42.678;23.364;2022-10-16T07:20:02;95797.72;;;18.13;53.07
6134;BME280;3098;42.678;23.364;2022-10-16T07:22:32;95796.88;;;18.57;52.54
6134;BME280;3098;42.678;23.364;2022-10-16T07:24:59;95792.16;;;19.42;50.67
6134;BME280;3098;42.678;23.364;2022-10-16T07:27:26;95798.22;;;19.39;49.08
6134;BME280;3098;42.678;23.364;2022-10-16T07:29:53;95793.31;;;18.53;52.25
6134;BME280;3098;42.678;23.364;2022-10-16T07:32:20;95773.81;;;20.66;46.84
6134;BME280;3098;42.678;23.364;2022-10-16T07:34:48;95800.72;;;20.82;46.96
6134;BME280;3098;42.678;23.364;2022-10-16T07:37:16;95740.09;;;19.50;49.04
6134;BME280;3098;42.678;23.364;2022-10-16T07:39:45;95791.72;;;20.27;47.52
6134;BME280;3098;42.678;23.364;2022-10-16T07:42:13;95796.19;;;18.48;52.32
6134;BME280;3098;42.678;23.364;2022-10-16T07:44:41;95812.13;;;19.69;51.42
6134;BME280;3098;42.678;23.364;2022-10-16T07:47:10;95805.47;;;20.53;48.21
6134;BME280;3098;42.678;23.364;2022-10-16T07:49:37;95806.38;;;19.71;50.26
6134;BME280;3098;42.678;23.364;2022-10-16T07:52:04;95801.38;;;21.45;46.17
6134;BME280;3098;42.678;23.364;2022-10-16T07:54:31;95780.97;;;21.47;46.48
6134;BME280;3098;42.678;23.364;2022-10-16T07:57:00;95768.88;;;20.87;46.06
6134;BME280;3098;42.678;23.364;2022-10-16T07:59:29;95774.38;;;19.54;48.33
6134;BME280;3098;42.678;23.364;2022-10-16T08:01:57;95806.88;;;19.61;50.65
6134;BME280;3098;42.678;23.364;2022-10-16T08:04:25;95813.09;;;18.85;53.20
6134;BME280;3098;42.678;23.364;2022-10-16T08:06:52;95810.81;;;20.22;49.99
6134;BME280;3098;42.678;23.364;2022-10-16T08:09:20;95808.09;;;21.35;48.25
6134;BME280;3098;42.678;23.364;2022-10-16T08:11:48;95760.66;;;21.15;44.99
6134;BME280;3098;42.678;23.364;2022-10-16T08:14:19;95757.81;;;21.46;45.01
6134;BME280;3098;42.678;23.364;2022-10-16T08:16:47;95811.19;;;22.37;43.57
6134;BME280;3098;42.678;23.364;2022-10-16T08:19:15;95812.44;;;21.40;44.97
6134;BME280;3098;42.678;23.364;2022-10-16T08:21:47;95799.88;;;22.50;43.51
6134;BME280;3098;42.678;23.364;2022-10-16T08:24:15;95794.38;;;22.01;42.63
6134;BME280;3098;42.678;23.364;2022-10-16T08:26:44;95753.09;;;21.82;43.03
6134;BME280;3098;42.678;23.364;2022-10-16T08:29:14;95764.75;;;22.76;41.66
6134;BME280;3098;42.678;23.364;2022-10-16T08:31:43;95811.88;;;22.07;43.78
6134;BME280;3098;42.678;23.364;2022-10-16T08:34:11;95780.78;;;21.37;43.25
6134;BME280;3098;42.678;23.364;2022-10-16T08:36:38;95798.22;;;21.81;43.07
6134;BME280;3098;42.678;23.364;2022-10-16T08:39:06;95792.94;;;22.07;43.44
6134;BME280;3098;42.678;23.364;2022-10-16T08:41:56;95800.69;;;23.92;38.68
6134;BME280;3098;42.678;23.364;2022-10-16T08:44:53;95781.69;;;24.73;36.22
6134;BME280;3098;42.678;23.364;2022-10-16T08:47:35;95781.47;;;24.45;36.33
6134;BME280;3098;42.678;23.364;2022-10-16T08:50:14;95809.88;;;24.62;36.97
6134;BME280;3098;42.678;23.364;2022-10-16T08:52:45;95770.28;;;24.10;36.31
6134;BME280;3098;42.678;23.364;2022-10-16T08:55:31;95809.91;;;22.27;37.39
6134;BME280;3098;42.678;23.364;2022-10-16T08:58:00;95749.00;;;23.38;35.75
6134;BME280;3098;42.678;23.364;2022-10-16T09:00:28;95723.16;;;23.84;33.94
6134;BME280;3098;42.678;23.364;2022-10-16T09:03:06;95811.16;;;24.75;34.28
6134;BME280;3098;42.678;23.364;2022-10-16T09:05:49;95769.38;;;24.83;32.73
6134;BME280;3098;42.678;23.364;2022-10-16T09:08:27;95811.28;;;22.40;35.32
6134;BME280;3098;42.678;23.364;2022-10-16T09:10:58;95812.84;;;22.64;35.73
6134;BME280;3098;42.678;23.364;2022-10-16T09:13:34;95765.97;;;21.69;37.33
6134;BME280;3098;42.678;23.364;2022-10-16T09:16:13;95686.66;;;23.01;34.14
6134;BME280;3098;42.678;23.364;2022-10-16T09:18:51;95812.03;;;23.38;34.89
6134;BME280;3098;42.678;23.364;2022-10-16T09:21:21;95815.13;;;22.16;36.60
6134;BME280;3098;42.678;23.364;2022-10-16T09:23:51;95743.97;;;23.40;34.24
6134;BME280;3098;42.678;23.364;2022-10-16T09:26:19;95694.03;;;23.37;33.82
6134;BME280;3098;42.678;23.364;2022-10-16T09:28:47;95777.28;;;24.11;33.51
6134;BME280;3098;42.678;23.364;2022-10-16T09:31:20;95715.63;;;23.64;32.92
6134;BME280;3098;42.678;23.364;2022-10-16T09:33:53;95813.22;;;22.88;34.64
6134;BME280;3098;42.678;23.364;2022-10-16T09:36:23;95689.44;;;22.78;34.34
6134;BME280;3098;42.678;23.364;2022-10-16T09:39:03;95798.63;;;24.16;34.46
6134;BME280;3098;42.678;23.364;2022-10-16T09:41:34;95602.56;;;22.83;34.79
6134;BME280;3098;42.678;23.364;2022-10-16T09:44:04;95759.72;;;23.64;34.38
6134;BME280;3098;42.678;23.364;2022-10-16T09:46:35;95775.28;;;23.71;33.26
6134;BME280;3098;42.678;23.364;2022-10-16T09:49:20;95745.00;;;23.62;33.05
6134;BME280;3098;42.678;23.364;2022-10-16T09:51:49;95771.66;;;22.74;35.25
6134;BME280;3098;42.678;23.364;2022-10-16T09:54:21;95733.78;;;22.74;34.30
6134;BME280;3098;42.678;23.364;2022-10-16T09:56:50;95721.28;;;23.18;33.27
6134;BME280;3098;42.678;23.364;2022-10-16T09:59:22;95622.16;;;21.49;35.31
6134;BME280;3098;42.678;23.364;2022-10-16T10:01:54;95768.63;;;22.53;35.77
6134;BME280;3098;42.678;23.364;2022-10-16T10:04:38;95735.44;;;22.56;35.62
6134;BME280;3098;42.678;23.364;2022-10-16T10:07:07;95781.19;;;22.42;35.90
6134;BME280;3098;42.678;23.364;2022-10-16T10:09:45;95695.47;;;21.32;38.02
6134;BME280;3098;42.678;23.364;2022-10-16T10:12:21;95742.81;;;22.10;33.19
6134;BME280;3098;42.678;23.364;2022-10-16T10:14:50;95712.41;;;21.52;34.20
6134;BME280;3098;42.678;23.364;2022-10-16T10:17:19;95755.50;;;21.26;35.69
6134;BME280;3098;42.678;23.364;2022-10-16T10:19:57;95772.41;;;22.25;35.70
6134;BME280;3098;42.678;23.364;2022-10-16T10:22:30;95739.44;;;21.13;37.74
6134;BME280;3098;42.678;23.364;2022-10-16T10:25:15;95737.31;;;21.42;37.66
6134;BME280;3098;42.678;23.364;2022-10-16T10:28:01;95767.00;;;21.42;38.40
6134;BME280;3098;42.678;23.364;2022-10-16T10:30:40;95764.03;;;22.08;36.43
6134;BME280;3098;42.678;23.364;2022-10-16T10:33:20;95766.69;;;22.76;35.02
6134;BME280;3098;42.678;23.364;2022-10-16T10:36:00;95758.97;;;23.34;33.17
6134;BME280;3098;42.678;23.364;2022-10-16T10:38:38;95725.84;;;23.14;33.07
6134;BME280;3098;42.678;23.364;2022-10-16T10:41:17;95737.13;;;21.73;34.98
6134;BME280;3098;42.678;23.364;2022-10-16T10:43:58;95718.22;;;20.77;34.86
6134;BME280;3098;42.678;23.364;2022-10-16T10:46:34;95748.34;;;20.32;36.79
6134;BME280;3098;42.678;23.364;2022-10-16T10:49:14;95697.59;;;19.72;37.75
6134;BME280;3098;42.678;23.364;2022-10-16T10:51:54;95740.69;;;20.66;36.95
6134;BME280;3098;42.678;23.364;2022-10-16T10:54:29;95743.22;;;21.89;35.42
6134;BME280;3098;42.678;23.364;2022-10-16T11:00:03;95741.69;;;22.86;33.96
6134;BME280;3098;42.678;23.364;2022-10-16T11:02:40;95715.94;;;22.43;35.08
6134;BME280;3098;42.678;23.364;2022-10-16T11:08:13;95673.81;;;22.16;33.20
6134;BME280;3098;42.678;23.364;2022-10-16T11:10:48;95705.16;;;20.79;37.41
6134;BME280;3098;42.678;23.364;2022-10-16T11:13:30;95706.91;;;21.45;36.98
6134;BME280;3098;42.678;23.364;2022-10-16T11:16:13;95679.84;;;21.03;36.80
6134;BME280;3098;42.678;23.364;2022-10-16T11:18:48;95726.88;;;19.89;40.03
6134;BME280;3098;42.678;23.364;2022-10-16T11:21:19;95716.66;;;20.26;39.33
6134;BME280;3098;42.678;23.364;2022-10-16T11:23:53;95692.47;;;20.29;38.42
6134;BME280;3098;42.678;23.364;2022-10-16T11:26:30;95714.03;;;20.45;37.93
6134;BME280;3098;42.678;23.364;2022-10-16T11:29:02;95681.34;;;19.68;39.25
6134;BME280;3098;42.678;23.364;2022-10-16T11:31:36;95712.34;;;19.07;40.59
6134;BME280;3098;42.678;23.364;2022-10-16T11:34:10;95706.44;;;19.29;41.72
6134;BME280;3098;42.678;23.364;2022-10-16T11:36:45;95701.16;;;20.23;40.45
6134;BME280;3098;42.678;23.364;2022-10-16T11:39:19;95676.69;;;19.81;40.21
6134;BME280;3098;42.678;23.364;2022-10-16T11:41:49;95713.78;;;20.69;39.17
6134;BME280;3098;42.678;23.364;2022-10-16T11:44:38;95678.63;;;20.15;40.13
6134;BME280;3098;42.678;23.364;2022-10-16T11:47:26;95683.78;;;20.90;39.23
6134;BME280;3098;42.678;23.364;2022-10-16T11:49:58;95658.59;;;20.13;38.13
6134;BME280;3098;42.678;23.364;2022-10-16T11:52:36;95686.72;;;19.84;39.18
6134;BME280;3098;42.678;23.364;2022-10-16T11:55:17;95664.84;;;20.17;38.71
6134;BME280;3098;42.678;23.364;2022-10-16T11:57:50;95503.41;;;19.38;37.96
6134;BME280;3098;42.678;23.364;2022-10-16T12:00:22;95711.22;;;20.41;37.99
6134;BME280;3098;42.678;23.364;2022-10-16T12:02:58;95676.81;;;20.19;38.59
6134;BME280;3098;42.678;23.364;2022-10-16T12:05:35;95707.38;;;20.58;38.25
6134;BME280;3098;42.678;23.364;2022-10-16T12:08:12;95527.44;;;19.31;38.67
6134;BME280;3098;42.678;23.364;2022-10-16T12:10:44;95622.84;;;19.22;39.06
6134;BME280;3098;42.678;23.364;2022-10-16T12:13:29;95708.19;;;19.80;39.16
6134;BME280;3098;42.678;23.364;2022-10-16T12:16:20;95704.84;;;19.56;39.94
6134;BME280;3098;42.678;23.364;2022-10-16T12:18:49;95695.25;;;20.17;38.71
6134;BME280;3098;42.678;23.364;2022-10-16T12:21:30;95647.84;;;18.94;40.01
6134;BME280;3098;42.678;23.364;2022-10-16T12:24:00;95642.97;;;18.45;41.09
6134;BME280;3098;42.678;23.364;2022-10-16T12:26:32;95611.78;;;18.16;42.35
6134;BME280;3098;42.678;23.364;2022-10-16T12:29:23;95714.00;;;18.59;42.93
6134;BME280;3098;42.678;23.364;2022-10-16T12:31:55;95630.09;;;18.26;42.29
6134;BME280;3098;42.678;23.364;2022-10-16T12:34:27;95637.97;;;17.95;43.59
6134;BME280;3098;42.678;23.364;2022-10-16T12:37:10;95686.72;;;18.21;43.96
6134;BME280;3098;42.678;23.364;2022-10-16T12:39:39;95657.97;;;17.97;44.70
6134;BME280;3098;42.678;23.364;2022-10-16T12:42:23;95473.19;;;16.99;44.29
6134;BME280;3098;42.678;23.364;2022-10-16T12:44:50;95708.75;;;18.02;44.46
6134;BME280;3098;42.678;23.364;2022-10-16T12:47:22;95491.19;;;16.53;44.81
6134;BME280;3098;42.678;23.364;2022-10-16T12:49:52;95679.00;;;17.83;44.50
6134;BME280;3098;42.678;23.364;2022-10-16T12:52:27;95597.22;;;17.32;44.55
6134;BME280;3098;42.678;23.364;2022-10-16T12:54:56;95714.72;;;18.08;43.90
6134;BME280;3098;42.678;23.364;2022-10-16T12:57:39;95618.34;;;17.46;44.54
6134;BME280;3098;42.678;23.364;2022-10-16T13:00:17;95634.16;;;17.71;44.34
6134;BME280;3098;42.678;23.364;2022-10-16T13:06:04;95727.66;;;18.42;43.64
6134;BME280;3098;42.678;23.364;2022-10-16T13:08:48;95650.06;;;17.76;42.53
6134;BME280;3098;42.678;23.364;2022-10-16T13:11:27;95718.72;;;18.26;42.96
6134;BME280;3098;42.678;23.364;2022-10-16T13:14:13;95710.13;;;18.32;42.50
6134;BME280;3098;42.678;23.364;2022-10-16T13:16:51;95636.72;;;17.80;41.97
6134;BME280;3098;42.678;23.364;2022-10-16T13:19:32;95559.47;;;17.49;41.03
6134;BME280;3098;42.678;23.364;2022-10-16T13:22:13;95716.25;;;18.57;40.83
6134;BME280;3098;42.678;23.364;2022-10-16T13:24:56;95715.81;;;18.55;41.10
6134;BME280;3098;42.678;23.364;2022-10-16T13:27:39;95633.59;;;18.02;41.73
6134;BME280;3098;42.678;23.364;2022-10-16T13:30:31;95716.38;;;18.49;42.56
6134;BME280;3098;42.678;23.364;2022-10-16T13:33:15;95693.69;;;18.10;42.53
6134;BME280;3098;42.678;23.364;2022-10-16T13:35:49;95715.81;;;18.31;43.20
6134;BME280;3098;42.678;23.364;2022-10-16T13:38:18;95727.47;;;18.35;43.96
6134;BME280;3098;42.678;23.364;2022-10-16T13:40:53;95682.81;;;18.18;42.62